To NAV CANADA Home Page Login to a new session Search on AWWS site Disclaimer Vers la page française équivalente Tips FAQ What's new on the site To the Forecasts and Observations / NOTAM section To "File a Flight Plan" website Publications and other links Update of the User's profile FIC Telephone Numbers My Weather Data Folder Route Weather Data Regional Weather Data Local Weather Data To the Forecasts and Observations / NOTAM section
Request Generated 01/24/2022 at 23:55:27 UTC . Weather information available at that time is displayed.

METAR/TAF

CALGARY/YYC CALGARY INTL/AB    

METAR CYYC 242300Z 35018G27KT 15SM SCT035 BKN084 02/M03 A3013 RMK SC3AC4 SLP248=
METAR CYYC 242200Z 35018G25KT 15SM BKN027 02/M03 A3012 RMK SC7 SLP244=
METAR CYYC 242100Z 35016G23KT 10SM OVC040 01/M02 A3011 RMK SC8 SLP243=

TAF CYYC 242343Z 2500/2524 34012G22KT P6SM SCT040 BKN080 TEMPO
2500/2504 P6SM -SHSN BKN040
FM250700 34008KT P6SM FEW040
FM250900 27005KT P6SM SKC
FM251100 27005KT P6SM SCT220
BECMG 2520/2522 27018G28KT
RMK NXT FCST BY 250300Z=
Your time UTC time
Weather data provided by Environment Canada and NAV CANADA